Time;durP1;ratioP1;P1;durP2;ratioP2;P2;SDS_P1;SDS_P2;PMS_P1;PMS_P2;Temp;Humidity;BMP_temperature;BMP_pressure;BME280_temperature;BME280_humidity;BME280_pressure;Samples;Min_cycle;Max_cycle;Signal;HPM_P1;HPM_P2
2023/09/21 00:01:43;;;;;;;5.20;2.63;;;25.00;48.70;;;;;;5088792;27;45324;-67
2023/09/21 00:04:10;;;;;;;6.93;2.92;;;25.00;48.70;;;;;;5088207;27;46498;-67
2023/09/21 00:06:37;;;;;;;8.70;3.15;;;25.00;48.70;;;;;;5088437;27;45436;-67
2023/09/21 00:09:04;;;;;;;5.88;2.90;;;25.00;48.70;;;;;;5087966;27;44715;-67
2023/09/21 00:11:32;;;;;;;4.78;2.80;;;25.00;48.70;;;;;;5088491;27;45383;-67
2023/09/21 00:13:59;;;;;;;7.30;2.90;;;25.00;48.70;;;;;;5088010;27;46438;-66
2023/09/21 00:16:27;;;;;;;5.10;2.67;;;25.00;48.70;;;;;;5088050;27;45335;-67
2023/09/21 00:18:55;;;;;;;6.65;3.25;;;24.90;48.60;;;;;;5088454;27;45384;-67
2023/09/21 00:21:23;;;;;;;5.25;2.67;;;25.00;48.70;;;;;;5088423;27;45560;-67
2023/09/21 00:23:50;;;;;;;10.30;3.15;;;24.90;48.70;;;;;;5087818;27;45324;-67
2023/09/21 00:26:18;;;;;;;5.30;2.30;;;24.90;48.70;;;;;;5088346;27;45268;-67
2023/09/21 00:28:48;;;;;;;5.72;2.40;;;24.90;48.70;;;;;;5088363;27;45393;-67
2023/09/21 00:31:15;;;;;;;5.65;2.83;;;24.90;48.70;;;;;;5088251;27;45387;-67
2023/09/21 00:33:42;;;;;;;6.60;2.70;;;24.90;48.70;;;;;;5087616;27;46355;-68
2023/09/21 00:36:13;;;;;;;6.15;2.50;;;24.90;48.80;;;;;;5087746;27;45336;-66
2023/09/21 00:38:39;;;;;;;5.18;2.58;;;24.90;48.80;;;;;;5087938;27;45300;-67
2023/09/21 00:41:07;;;;;;;4.22;2.13;;;24.90;48.70;;;;;;5088150;27;45323;-67
2023/09/21 00:43:34;;;;;;;5.35;2.63;;;24.90;48.80;;;;;;5087133;27;45727;-67
2023/09/21 00:46:04;;;;;;;6.03;2.80;;;24.80;48.80;;;;;;5087629;27;45327;-67
2023/09/21 00:48:33;;;;;;;4.00;2.70;;;24.80;48.70;;;;;;5087871;27;45194;-67
2023/09/21 00:51:00;;;;;;;4.65;2.58;;;24.80;48.80;;;;;;5087940;27;45604;-67
2023/09/21 00:53:28;;;;;;;4.82;2.35;;;24.80;48.80;;;;;;5087419;27;47263;-68
2023/09/21 00:55:56;;;;;;;3.38;2.58;;;24.80;48.80;;;;;;5087518;27;45362;-67
2023/09/21 00:58:23;;;;;;;5.45;2.22;;;24.80;48.80;;;;;;5087968;27;45475;-67
2023/09/21 01:00:51;;;;;;;6.47;2.85;;;24.80;48.80;;;;;;5087976;27;45711;-68
2023/09/21 01:03:20;;;;;;;3.78;2.47;;;24.80;48.80;;;;;;5087283;27;45448;-67
2023/09/21 01:05:50;;;;;;;4.90;2.53;;;24.80;48.90;;;;;;5087432;27;45307;-68
2023/09/21 01:08:21;;;;;;;3.03;2.20;;;24.70;48.80;;;;;;5087472;27;45324;-67
2023/09/21 01:10:49;;;;;;;3.95;2.28;;;24.70;48.90;;;;;;5087696;27;45180;-67
2023/09/21 01:13:16;;;;;;;6.30;2.88;;;24.70;48.90;;;;;;5087211;27;45481;-66
2023/09/21 01:15:44;;;;;;;4.47;2.25;;;24.70;48.90;;;;;;5087089;27;45434;-67
2023/09/21 01:18:11;;;;;;;6.03;2.35;;;24.70;48.90;;;;;;5087283;27;45325;-67
2023/09/21 01:20:42;;;;;;;4.38;2.35;;;24.70;48.90;;;;;;5086486;27;45337;-67
2023/09/21 01:23:10;;;;;;;3.90;2.22;;;24.70;48.90;;;;;;5086758;27;47044;-67
2023/09/21 01:25:39;;;;;;;5.13;2.30;;;24.70;49.10;;;;;;5087160;27;45193;-66
2023/09/21 01:28:08;;;;;;;4.28;2.47;;;24.70;49.00;;;;;;5087304;27;45362;-67
2023/09/21 01:30:36;;;;;;;3.03;2.10;;;24.70;48.90;;;;;;5087448;27;45303;-67
2023/09/21 01:33:07;;;;;;;3.97;2.05;;;24.70;49.10;;;;;;5086703;27;45209;-67
2023/09/21 01:35:34;;;;;;;3.78;2.20;;;24.70;49.00;;;;;;5086771;27;45362;-67
2023/09/21 01:38:00;;;;;;;2.25;1.85;;;24.70;49.10;;;;;;5084411;27;45362;-67
2023/09/21 01:40:27;;;;;;;2.30;1.83;;;24.70;49.10;;;;;;5086976;27;45383;-67
2023/09/21 01:42:56;;;;;;;4.25;2.22;;;24.60;49.00;;;;;;5086004;27;45632;-67
2023/09/21 01:45:23;;;;;;;3.50;1.92;;;24.60;49.10;;;;;;5086788;27;45374;-67
2023/09/21 01:47:50;;;;;;;5.22;2.00;;;24.60;49.10;;;;;;5086876;27;45268;-67
2023/09/21 01:50:17;;;;;;;2.42;1.88;;;24.60;49.10;;;;;;5086864;27;45347;-67
2023/09/21 01:52:44;;;;;;;3.83;2.00;;;24.60;49.10;;;;;;5086350;27;45253;-67
2023/09/21 01:55:12;;;;;;;2.75;1.75;;;24.60;49.20;;;;;;5086602;27;45378;-67
2023/09/21 01:57:39;;;;;;;2.53;2.00;;;24.60;49.20;;;;;;5086725;27;45424;-67
2023/09/21 02:00:12;;;;;;;2.78;1.95;;;24.60;49.20;;;;;;5086890;27;45303;-67
2023/09/21 02:02:39;;;;;;;3.15;2.00;;;24.60;49.20;;;;;;5086409;27;45587;-67
2023/09/21 02:05:10;;;;;;;2.78;1.70;;;24.50;49.20;;;;;;5086418;27;45259;-67
2023/09/21 02:07:37;;;;;;;2.92;1.80;;;24.60;49.30;;;;;;5086754;27;45357;-67
2023/09/21 02:10:05;;;;;;;2.47;1.80;;;24.50;49.20;;;;;;5086675;27;45352;-67
2023/09/21 02:12:36;;;;;;;3.85;1.80;;;24.50;49.10;;;;;;5086149;27;45326;-66
2023/09/21 02:15:03;;;;;;;3.13;2.05;;;24.50;49.20;;;;;;5086235;27;45377;-67
2023/09/21 02:17:32;;;;;;;3.08;1.80;;;24.50;49.20;;;;;;5086655;27;45340;-67
2023/09/21 02:19:59;;;;;;;2.28;1.75;;;24.50;49.30;;;;;;5086791;27;45435;-67
2023/09/21 02:22:26;;;;;;;3.10;1.70;;;24.50;49.30;;;;;;5086130;27;46397;-67
2023/09/21 02:24:55;;;;;;;3.40;2.03;;;24.50;49.30;;;;;;5086289;27;45293;-67
2023/09/21 02:27:22;;;;;;;2.47;1.50;;;24.50;49.30;;;;;;5086571;27;45333;-67
2023/09/21 02:29:49;;;;;;;2.80;1.88;;;24.50;49.30;;;;;;5086397;27;45470;-67
2023/09/21 02:32:17;;;;;;;2.45;1.75;;;24.50;49.40;;;;;;5085823;27;47610;-67
2023/09/21 02:34:46;;;;;;;3.08;1.85;;;24.50;49.30;;;;;;5086383;27;45383;-67
2023/09/21 02:37:12;;;;;;;3.72;1.85;;;24.50;49.40;;;;;;5086356;27;45299;-67
2023/09/21 02:39:39;;;;;;;3.08;1.90;;;24.50;49.30;;;;;;5086242;28;45569;-67
2023/09/21 02:42:09;;;;;;;4.18;1.90;;;24.50;49.30;;;;;;5085708;27;46571;-67
2023/09/21 02:44:35;;;;;;;2.42;1.83;;;24.50;49.40;;;;;;5086031;27;46418;-66
2023/09/21 02:47:02;;;;;;;2.35;1.60;;;24.40;49.30;;;;;;5086296;27;45319;-67
2023/09/21 02:49:30;;;;;;;3.33;1.73;;;24.50;49.40;;;;;;5086303;27;45143;-67
2023/09/21 02:51:58;;;;;;;2.75;1.67;;;24.40;49.40;;;;;;5085848;27;45486;-67
2023/09/21 02:54:28;;;;;;;3.20;1.70;;;24.40;49.30;;;;;;5085795;27;45396;-67
2023/09/21 02:56:55;;;;;;;4.07;1.70;;;24.40;49.30;;;;;;5086156;27;45340;-67
2023/09/21 02:59:22;;;;;;;2.95;1.77;;;24.40;49.30;;;;;;5086685;27;45345;-67
2023/09/21 03:01:50;;;;;;;2.13;1.67;;;24.40;49.30;;;;;;5085643;28;45256;-67
2023/09/21 03:04:17;;;;;;;3.30;1.70;;;24.40;49.40;;;;;;5085885;27;45246;-66
2023/09/21 03:06:43;;;;;;;2.83;1.90;;;24.40;49.40;;;;;;5085830;27;45370;-67
2023/09/21 03:09:12;;;;;;;2.67;1.50;;;24.40;49.40;;;;;;5086114;27;45319;-67
2023/09/21 03:11:40;;;;;;;1.73;1.45;;;24.40;49.40;;;;;;5085447;27;46620;-67
2023/09/21 03:14:07;;;;;;;2.38;1.65;;;24.30;49.40;;;;;;5085658;27;45285;-66
2023/09/21 03:16:38;;;;;;;5.55;1.67;;;24.30;49.40;;;;;;5085905;27;45249;-67
2023/09/21 03:19:05;;;;;;;2.25;1.60;;;24.30;49.40;;;;;;5085686;27;45598;-67
2023/09/21 03:21:34;;;;;;;3.33;1.70;;;24.30;49.40;;;;;;5085682;27;46875;-67
2023/09/21 03:24:00;;;;;;;4.70;1.58;;;24.30;49.40;;;;;;5085386;27;45298;-66
2023/09/21 03:26:29;;;;;;;5.15;1.50;;;24.30;49.40;;;;;;5085569;27;45417;-67
2023/09/21 03:28:55;;;;;;;2.25;1.60;;;24.30;49.50;;;;;;5085713;27;45278;-67
2023/09/21 03:31:22;;;;;;;2.90;2.05;;;24.30;49.50;;;;;;5085231;27;46674;-67
2023/09/21 03:33:49;;;;;;;2.55;1.63;;;24.30;49.50;;;;;;5085479;27;45265;-67
2023/09/21 03:36:16;;;;;;;2.40;1.75;;;24.30;49.50;;;;;;5085616;27;45324;-66
2023/09/21 03:38:43;;;;;;;1.92;1.45;;;24.30;49.50;;;;;;5085534;27;45330;-66
2023/09/21 03:41:10;;;;;;;1.90;1.52;;;24.30;49.50;;;;;;5085257;27;46275;-66
2023/09/21 03:43:38;;;;;;;1.88;1.50;;;24.30;49.50;;;;;;5086352;27;45295;-67
2023/09/21 03:46:05;;;;;;;2.40;1.70;;;24.20;49.50;;;;;;5089165;27;45225;-67
2023/09/21 03:48:35;;;;;;;2.63;1.48;;;24.20;49.50;;;;;;5089244;27;45316;-67
2023/09/21 03:51:03;;;;;;;1.90;1.48;;;24.20;49.50;;;;;;5089015;27;45313;-67
2023/09/21 03:53:31;;;;;;;2.35;1.42;;;24.20;49.50;;;;;;5088958;27;45408;-67
2023/09/21 03:55:57;;;;;;;3.75;1.38;;;24.20;49.60;;;;;;5088955;27;45431;-67
2023/09/21 03:58:28;;;;;;;2.45;1.50;;;24.20;49.60;;;;;;5088921;27;45607;-67
2023/09/21 04:01:04;;;;;;;2.83;1.50;;;24.20;49.60;;;;;;5088519;27;45377;-67
2023/09/21 04:03:31;;;;;;;1.73;1.58;;;24.20;49.60;;;;;;5088513;27;45225;-67
2023/09/21 04:06:02;;;;;;;1.95;1.48;;;24.20;49.60;;;;;;5088792;27;45382;-67
2023/09/21 04:08:28;;;;;;;1.92;1.67;;;24.20;49.70;;;;;;5088926;27;45329;-67
2023/09/21 04:10:59;;;;;;;3.72;1.80;;;24.20;49.60;;;;;;5088160;27;45399;-67
2023/09/21 04:13:26;;;;;;;2.25;1.48;;;24.20;49.60;;;;;;5088095;27;45383;-67
2023/09/21 04:15:53;;;;;;;1.88;1.42;;;24.20;49.60;;;;;;5088254;27;45240;-67
2023/09/21 04:18:21;;;;;;;1.58;1.40;;;24.20;49.70;;;;;;5088403;27;45221;-66
2023/09/21 04:20:48;;;;;;;1.90;1.50;;;24.20;49.70;;;;;;5088122;27;46795;-66
2023/09/21 04:23:14;;;;;;;2.90;1.60;;;24.20;49.70;;;;;;5087910;27;45411;-66
2023/09/21 04:25:47;;;;;;;2.42;1.27;;;24.20;49.70;;;;;;5088451;27;45366;-67
2023/09/21 04:28:14;;;;;;;1.63;1.40;;;24.10;49.70;;;;;;5088272;27;45446;-66
2023/09/21 04:30:47;;;;;;;3.13;1.40;;;24.10;49.70;;;;;;5087756;27;48582;-67
2023/09/21 04:33:14;;;;;;;5.38;1.50;;;24.10;49.70;;;;;;5087772;27;45383;-66
2023/09/21 04:35:42;;;;;;;1.75;1.40;;;24.10;49.60;;;;;;5088005;27;45309;-67
2023/09/21 04:38:09;;;;;;;1.30;1.20;;;24.10;49.70;;;;;;5088313;27;45300;-67
2023/09/21 04:40:36;;;;;;;2.45;1.40;;;24.10;49.60;;;;;;5087827;27;45254;-67
2023/09/21 04:43:03;;;;;;;2.63;1.33;;;24.10;49.70;;;;;;5087583;27;45309;-67
2023/09/21 04:45:32;;;;;;;2.78;1.58;;;24.10;49.70;;;;;;5088315;27;45320;-66
2023/09/21 04:48:03;;;;;;;2.40;1.17;;;24.10;49.70;;;;;;5088385;27;45320;-67
2023/09/21 04:50:30;;;;;;;2.58;1.38;;;24.10;49.70;;;;;;5087828;27;45382;-66
2023/09/21 04:52:59;;;;;;;1.98;1.50;;;24.10;49.70;;;;;;5087753;27;45446;-67
2023/09/21 04:55:25;;;;;;;1.30;1.20;;;24.10;49.70;;;;;;5087900;27;45371;-67
2023/09/21 04:57:53;;;;;;;1.88;1.48;;;24.10;49.80;;;;;;5088122;27;45399;-67
2023/09/21 05:00:20;;;;;;;2.05;1.60;;;24.10;49.80;;;;;;5087768;27;46392;-67
2023/09/21 05:02:47;;;;;;;2.22;1.33;;;24.10;49.80;;;;;;5087634;27;45371;-67
2023/09/21 05:05:15;;;;;;;2.70;1.50;;;24.10;49.80;;;;;;5087927;27;45268;-66
2023/09/21 05:07:42;;;;;;;3.10;1.50;;;24.10;49.80;;;;;;5088037;27;45565;-67
2023/09/21 05:10:11;;;;;;;2.28;1.23;;;24.10;49.90;;;;;;5087437;27;46802;-67
2023/09/21 05:12:38;;;;;;;3.20;1.75;;;24.10;49.90;;;;;;5067267;28;45260;-67
2023/09/21 05:15:06;;;;;;;1.75;1.20;;;24.10;49.80;;;;;;5067279;28;45285;-67
2023/09/21 05:17:33;;;;;;;1.20;1.10;;;24.10;49.90;;;;;;5067527;28;45463;-67
2023/09/21 05:20:00;;;;;;;1.83;1.42;;;24.10;49.80;;;;;;5066872;28;45325;-67
2023/09/21 05:22:27;;;;;;;3.25;1.60;;;24.10;49.90;;;;;;5064548;28;45301;-67
2023/09/21 05:24:54;;;;;;;1.35;1.23;;;24.00;49.80;;;;;;5066853;28;45299;-68
2023/09/21 05:27:22;;;;;;;1.95;1.38;;;24.00;50.40;;;;;;5066922;28;45309;-67
2023/09/21 05:29:49;;;;;;;1.80;1.20;;;24.00;49.80;;;;;;5067023;28;46374;-67
2023/09/21 05:32:15;;;;;;;1.90;1.40;;;24.00;49.80;;;;;;5066792;28;45313;-67
2023/09/21 05:34:42;;;;;;;1.30;1.10;;;24.00;49.80;;;;;;5067280;28;45367;-67
2023/09/21 05:37:09;;;;;;;1.75;1.20;;;24.00;49.90;;;;;;5067195;28;45412;-67
2023/09/21 05:39:38;;;;;;;1.05;0.90;;;24.00;49.80;;;;;;5066800;28;45380;-66
2023/09/21 05:42:05;;;;;;;1.95;1.40;;;24.00;49.80;;;;;;5066237;28;46158;-67
2023/09/21 05:44:33;;;;;;;1.42;1.30;;;24.00;49.80;;;;;;5067036;28;45302;-67
2023/09/21 05:47:00;;;;;;;2.08;1.33;;;24.00;49.90;;;;;;5067125;28;45250;-67
2023/09/21 05:49:27;;;;;;;2.00;1.40;;;24.00;49.90;;;;;;5066987;28;47575;-67
2023/09/21 05:51:56;;;;;;;2.42;1.45;;;24.00;49.90;;;;;;5066920;28;45294;-67
2023/09/21 05:54:23;;;;;;;1.52;1.38;;;24.00;49.90;;;;;;5067006;28;45362;-67
2023/09/21 05:56:51;;;;;;;1.17;1.08;;;24.00;49.90;;;;;;5067208;28;45323;-67
2023/09/21 05:59:18;;;;;;;2.05;1.20;;;24.00;49.90;;;;;;5066461;28;46397;-67
2023/09/21 06:01:48;;;;;;;1.60;1.33;;;24.00;49.90;;;;;;5066602;28;45308;-67
2023/09/21 06:04:16;;;;;;;1.60;1.50;;;24.00;49.90;;;;;;5066822;28;45328;-67
2023/09/21 06:06:43;;;;;;;2.25;1.23;;;24.00;49.90;;;;;;5066160;28;45493;-67
2023/09/21 06:09:12;;;;;;;1.38;1.27;;;24.00;49.90;;;;;;5066798;28;45481;-67
2023/09/21 06:11:39;;;;;;;1.27;1.08;;;24.00;49.90;;;;;;5078738;28;45336;-67
2023/09/21 06:14:06;;;;;;;1.88;1.17;;;24.00;49.90;;;;;;5086470;27;45300;-68
2023/09/21 06:16:33;;;;;;;1.33;1.13;;;24.00;50.00;;;;;;5086952;27;45276;-67
2023/09/21 06:19:02;;;;;;;2.00;1.30;;;24.00;50.00;;;;;;5086625;27;46702;-67
2023/09/21 06:21:30;;;;;;;1.75;1.23;;;24.00;49.90;;;;;;5086773;27;45398;-67
2023/09/21 06:23:57;;;;;;;1.40;1.02;;;24.00;50.00;;;;;;5086585;27;45314;-67
2023/09/21 06:26:24;;;;;;;1.75;1.30;;;24.00;50.00;;;;;;5086767;27;45416;-67
2023/09/21 06:28:51;;;;;;;1.80;1.30;;;24.00;49.90;;;;;;5086463;27;45508;-67
2023/09/21 06:31:21;;;;;;;1.25;1.15;;;24.00;50.00;;;;;;5086533;27;45386;-67
2023/09/21 06:33:48;;;;;;;1.98;1.20;;;24.00;49.90;;;;;;5086457;27;45302;-66
2023/09/21 06:36:18;;;;;;;2.20;1.15;;;24.00;49.90;;;;;;5086541;27;45550;-66
2023/09/21 06:38:45;;;;;;;1.90;1.40;;;24.00;49.90;;;;;;5086154;27;46389;-66
2023/09/21 06:41:12;;;;;;;1.30;1.10;;;24.00;49.90;;;;;;5086651;27;45187;-66
2023/09/21 06:43:42;;;;;;;1.58;1.15;;;24.00;49.90;;;;;;5085643;27;45343;-66
2023/09/21 06:46:09;;;;;;;1.42;1.20;;;24.00;49.90;;;;;;5086662;27;45361;-67
2023/09/21 06:48:35;;;;;;;1.15;1.05;;;24.00;49.90;;;;;;5086129;27;45703;-66
2023/09/21 06:51:03;;;;;;;1.13;1.02;;;24.00;49.90;;;;;;5086166;27;45321;-67
2023/09/21 06:53:31;;;;;;;1.52;1.42;;;24.00;49.80;;;;;;5084572;27;45384;-66
2023/09/21 06:55:58;;;;;;;1.52;1.02;;;24.00;49.80;;;;;;5077630;28;45303;-67
2023/09/21 06:58:25;;;;;;;1.30;1.20;;;24.10;49.80;;;;;;5085382;27;45442;-65
2023/09/21 07:00:52;;;;;;;1.50;1.25;;;24.10;49.80;;;;;;5085234;27;45416;-67
2023/09/21 07:03:19;;;;;;;1.48;1.10;;;24.10;49.80;;;;;;5085805;27;45134;-66
2023/09/21 07:05:48;;;;;;;1.17;1.08;;;24.10;49.80;;;;;;5086340;27;45289;-65
2023/09/21 07:08:15;;;;;;;1.80;1.20;;;24.10;49.80;;;;;;5085685;27;45214;-66
2023/09/21 07:10:44;;;;;;;1.75;1.30;;;24.10;49.90;;;;;;5086457;27;45191;-67
2023/09/21 07:13:11;;;;;;;1.30;1.13;;;24.10;49.80;;;;;;5086488;27;45226;-67
2023/09/21 07:15:39;;;;;;;1.27;1.10;;;24.10;49.90;;;;;;5086926;27;45265;-67
2023/09/21 07:18:07;;;;;;;1.20;1.10;;;24.10;49.90;;;;;;5086668;27;45289;-67
2023/09/21 07:20:37;;;;;;;1.33;1.02;;;24.10;49.90;;;;;;5090002;27;45150;-67
2023/09/21 07:23:04;;;;;;;1.55;1.30;;;24.10;50.00;;;;;;5090210;27;45316;-67
2023/09/21 07:25:31;;;;;;;1.70;1.60;;;24.10;49.90;;;;;;5090206;27;45291;-67
2023/09/21 07:27:59;;;;;;;1.58;1.08;;;24.20;49.90;;;;;;5089764;27;45218;-67
2023/09/21 07:30:26;;;;;;;2.13;1.27;;;24.20;50.00;;;;;;5089824;27;45327;-67
2023/09/21 07:32:55;;;;;;;1.02;1.00;;;24.20;49.90;;;;;;5089932;27;45229;-68
2023/09/21 07:35:26;;;;;;;1.13;1.02;;;24.20;49.80;;;;;;5090164;27;45586;-67
2023/09/21 07:37:54;;;;;;;2.42;1.30;;;24.20;49.80;;;;;;5090021;27;45303;-67
2023/09/21 07:40:21;;;;;;;1.13;1.00;;;24.30;49.80;;;;;;5089729;28;45201;-68
2023/09/21 07:42:50;;;;;;;1.85;1.60;;;24.30;49.70;;;;;;5089503;27;45299;-68
2023/09/21 07:45:18;;;;;;;1.27;1.17;;;24.30;49.70;;;;;;5089611;27;45351;-68
2023/09/21 07:47:45;;;;;;;1.70;1.35;;;24.30;49.70;;;;;;5089171;27;47316;-69
2023/09/21 07:50:12;;;;;;;2.00;1.30;;;24.30;49.70;;;;;;5088533;27;45192;-67
2023/09/21 07:52:39;;;;;;;2.30;1.10;;;24.40;49.70;;;;;;5089475;27;45233;-74
2023/09/21 07:55:08;;;;;;;1.80;1.25;;;24.40;49.70;;;;;;5088523;27;45267;-69
2023/09/21 07:57:36;;;;;;;1.27;1.17;;;24.40;49.70;;;;;;5088505;27;47003;-69
2023/09/21 08:00:05;;;;;;;1.40;1.27;;;24.40;49.70;;;;;;5088955;27;45442;-68
2023/09/21 08:02:33;;;;;;;1.83;1.20;;;24.40;49.70;;;;;;5088883;27;45289;-68
2023/09/21 08:05:02;;;;;;;1.67;1.33;;;24.50;49.70;;;;;;5086890;28;45184;-67
2023/09/21 08:07:29;;;;;;;1.60;1.40;;;24.50;49.70;;;;;;5088678;27;45240;-68
2023/09/21 08:09:56;;;;;;;1.58;1.35;;;24.50;49.70;;;;;;5088556;27;45536;-69
2023/09/21 08:12:23;;;;;;;1.15;1.05;;;24.60;49.80;;;;;;5088269;27;45299;-71
2023/09/21 08:14:50;;;;;;;1.30;1.20;;;24.60;49.60;;;;;;5089233;27;45258;-69
2023/09/21 08:17:17;;;;;;;2.33;1.33;;;24.70;49.70;;;;;;5088967;27;47501;-68
2023/09/21 08:19:45;;;;;;;1.13;0.93;;;24.70;49.60;;;;;;5089061;27;45255;-69
2023/09/21 08:22:12;;;;;;;1.70;1.20;;;24.70;49.60;;;;;;5089228;27;45432;-69
2023/09/21 08:24:41;;;;;;;1.27;1.17;;;24.70;49.40;;;;;;5089222;27;45415;-69
2023/09/21 08:27:08;;;;;;;1.60;1.17;;;24.80;49.50;;;;;;5088721;27;45228;-69
2023/09/21 08:29:35;;;;;;;1.73;1.48;;;24.70;49.40;;;;;;5088251;27;45359;-68
2023/09/21 08:32:02;;;;;;;2.67;1.33;;;24.80;49.60;;;;;;5088952;27;45493;-68
2023/09/21 08:34:29;;;;;;;3.83;1.48;;;24.80;49.70;;;;;;5089061;27;45304;-68
2023/09/21 08:36:57;;;;;;;5.38;1.45;;;24.90;50.60;;;;;;5088114;27;46291;-68
2023/09/21 08:39:24;;;;;;;1.83;1.20;;;25.00;49.90;;;;;;5088294;27;45212;-68
2023/09/21 08:41:52;;;;;;;1.80;1.27;;;25.00;49.80;;;;;;5088878;27;45473;-72
2023/09/21 08:44:19;;;;;;;4.00;1.45;;;25.00;49.80;;;;;;5089373;27;45368;-71
2023/09/21 08:46:46;;;;;;;1.30;1.20;;;25.00;49.70;;;;;;5088816;27;46343;-72
2023/09/21 08:49:13;;;;;;;1.35;1.25;;;25.10;49.80;;;;;;5088498;27;45296;-72
2023/09/21 08:51:40;;;;;;;2.92;1.42;;;25.10;49.70;;;;;;5088833;27;45379;-72
2023/09/21 08:54:09;;;;;;;1.55;1.38;;;25.10;49.60;;;;;;5089138;27;45407;-72
2023/09/21 08:56:36;;;;;;;1.30;1.20;;;25.10;49.50;;;;;;5088300;27;46409;-72
2023/09/21 08:59:04;;;;;;;1.73;1.38;;;25.10;49.40;;;;;;5084496;27;45492;-68
2023/09/21 09:01:31;;;;;;;1.90;1.33;;;25.10;49.40;;;;;;5088272;27;45341;-68
2023/09/21 09:03:58;;;;;;;2.22;1.27;;;25.20;49.50;;;;;;5088272;27;45282;-67
2023/09/21 09:06:27;;;;;;;1.00;1.00;;;25.20;49.40;;;;;;5087786;27;46407;-68
2023/09/21 09:08:54;;;;;;;1.35;1.10;;;25.20;49.40;;;;;;5087711;27;45406;-68
2023/09/21 09:11:35;;;;;;;2.28;1.35;;;25.30;49.40;;;;;;5087765;27;45426;-68
2023/09/21 09:14:02;;;;;;;1.75;1.13;;;25.30;49.50;;;;;;5088332;27;45367;-67
2023/09/21 09:16:30;;;;;;;1.38;1.20;;;25.30;49.40;;;;;;5088372;27;46364;-68
2023/09/21 09:18:57;;;;;;;1.30;1.20;;;25.40;49.50;;;;;;5087918;27;45376;-68
2023/09/21 09:21:25;;;;;;;2.28;1.40;;;25.40;49.40;;;;;;5087875;27;45335;-68
2023/09/21 09:23:51;;;;;;;2.47;1.20;;;25.40;49.40;;;;;;5087930;27;45411;-67
2023/09/21 09:26:19;;;;;;;2.97;1.25;;;25.50;49.60;;;;;;5088173;27;45253;-68
2023/09/21 09:28:48;;;;;;;2.55;1.38;;;25.50;49.60;;;;;;5087410;27;45260;-68
2023/09/21 09:31:17;;;;;;;1.17;1.10;;;25.60;49.70;;;;;;5088172;27;45505;-67
2023/09/21 09:33:46;;;;;;;1.33;1.08;;;25.60;49.60;;;;;;5087829;27;45482;-68
2023/09/21 09:36:13;;;;;;;3.30;1.30;;;25.60;49.50;;;;;;5084946;27;45732;-68
2023/09/21 09:38:41;;;;;;;11.27;1.50;;;25.60;49.50;;;;;;5087597;27;45213;-68
2023/09/21 09:41:11;;;;;;;1.75;1.17;;;25.70;49.40;;;;;;5086830;27;45170;-68
2023/09/21 09:43:39;;;;;;;3.25;1.50;;;25.70;49.40;;;;;;5087804;27;45403;-68
2023/09/21 09:46:10;;;;;;;2.00;1.27;;;25.70;49.40;;;;;;5087533;27;47377;-68
2023/09/21 09:48:37;;;;;;;3.03;1.08;;;25.80;49.40;;;;;;5087991;27;45422;-68
2023/09/21 09:51:09;;;;;;;2.17;1.42;;;25.80;49.30;;;;;;5087839;27;45384;-69
2023/09/21 09:53:35;;;;;;;1.70;1.23;;;25.80;49.20;;;;;;5087945;27;45425;-68
2023/09/21 09:56:07;;;;;;;1.65;1.10;;;25.90;49.20;;;;;;5087541;27;45406;-67
2023/09/21 09:58:35;;;;;;;2.83;1.40;;;25.90;49.20;;;;;;5087699;27;45205;-67
2023/09/21 10:01:02;;;;;;;3.72;1.15;;;25.90;49.20;;;;;;5087302;27;45323;-69
2023/09/21 10:03:32;;;;;;;0.93;0.93;;;26.00;49.20;;;;;;5087545;27;45435;-68
2023/09/21 10:06:00;;;;;;;1.60;1.40;;;26.00;49.10;;;;;;5087501;27;45280;-69
2023/09/21 10:08:27;;;;;;;3.65;1.40;;;26.00;49.00;;;;;;5087526;27;45398;-69
2023/09/21 10:10:55;;;;;;;1.85;1.15;;;26.00;49.00;;;;;;5087206;27;45377;-69
2023/09/21 10:13:25;;;;;;;1.65;1.35;;;26.10;48.90;;;;;;5087241;27;45167;-68
2023/09/21 10:16:00;;;;;;;1.30;1.20;;;26.10;48.90;;;;;;5087015;27;46505;-70
2023/09/21 10:18:35;;;;;;;2.00;1.05;;;26.10;48.80;;;;;;5087130;27;45330;-69
2023/09/21 10:21:12;;;;;;;2.92;1.10;;;26.10;48.80;;;;;;5087386;27;45257;-70
2023/09/21 10:23:41;;;;;;;4.45;1.38;;;26.20;48.80;;;;;;5087817;27;45576;-69
2023/09/21 10:26:12;;;;;;;1.58;1.25;;;26.20;48.70;;;;;;5086833;27;46187;-69
2023/09/21 10:28:45;;;;;;;1.30;1.20;;;26.30;48.70;;;;;;5086586;27;45315;-69
2023/09/21 10:31:23;;;;;;;2.08;1.50;;;26.30;48.60;;;;;;5088026;27;45446;-65
2023/09/21 10:36:50;;;;;;;2.00;1.30;;;26.40;48.60;;;;;;5123706;27;45453;-66
2023/09/21 10:39:24;;;;;;;1.42;1.00;;;26.40;48.60;;;;;;5123969;27;45335;-66
2023/09/21 10:41:52;;;;;;;1.13;0.98;;;26.40;48.60;;;;;;5124472;27;45273;-65
2023/09/21 10:44:52;;;;;;;1.63;1.05;;;26.50;48.70;;;;;;5124421;27;45264;-65
2023/09/21 10:47:23;;;;;;;1.05;1.02;;;26.50;48.70;;;;;;5123931;27;46524;-65
2023/09/21 10:49:49;;;;;;;1.30;1.10;;;26.40;48.70;;;;;;5124581;27;45256;-66
2023/09/21 10:52:18;;;;;;;1.00;1.00;;;26.50;48.80;;;;;;5124718;27;45195;-66
2023/09/21 10:54:45;;;;;;;1.90;1.13;;;26.40;48.80;;;;;;5122178;27;45192;-66
2023/09/21 10:57:14;;;;;;;1.10;0.98;;;26.50;48.90;;;;;;5124697;27;45430;-66
2023/09/21 10:59:44;;;;;;;1.33;1.23;;;26.50;48.90;;;;;;5125114;27;45256;-66
2023/09/21 11:02:11;;;;;;;1.42;1.20;;;26.50;48.90;;;;;;5124984;27;45420;-66
2023/09/21 11:04:39;;;;;;;1.48;1.10;;;26.50;48.90;;;;;;5123894;27;45441;-66
2023/09/21 11:07:05;;;;;;;1.35;1.25;;;26.50;48.80;;;;;;5123639;27;45334;-66
2023/09/21 11:09:35;;;;;;;1.00;1.00;;;26.50;48.80;;;;;;5123226;27;45250;-66
2023/09/21 11:12:02;;;;;;;1.00;1.00;;;26.50;48.80;;;;;;5122936;27;45297;-66
2023/09/21 11:14:31;;;;;;;2.75;1.00;;;26.60;49.00;;;;;;5122791;27;45302;-65
2023/09/21 11:16:57;;;;;;;2.25;1.10;;;26.60;48.80;;;;;;5123463;27;45459;-66
2023/09/21 11:19:24;;;;;;;3.08;1.15;;;26.70;48.80;;;;;;5123618;27;45186;-66
2023/09/21 11:21:51;;;;;;;1.70;1.13;;;26.80;48.70;;;;;;5123977;27;45366;-65
2023/09/21 11:24:18;;;;;;;1.25;0.85;;;26.90;49.30;;;;;;5123752;27;45411;-65
2023/09/21 11:26:54;;;;;;;1.15;1.05;;;26.90;48.60;;;;;;5123201;27;46339;-64
2023/09/21 11:29:21;;;;;;;3.50;1.17;;;26.90;48.50;;;;;;5123514;27;45255;-66
2023/09/21 11:31:49;;;;;;;1.67;1.00;;;26.90;48.50;;;;;;5123700;27;45193;-67
2023/09/21 11:34:18;;;;;;;2.67;1.17;;;27.00;48.40;;;;;;5123657;27;45284;-65
2023/09/21 11:36:45;;;;;;;1.30;1.20;;;27.00;49.10;;;;;;5123109;27;46712;-66
2023/09/21 11:39:12;;;;;;;1.35;1.00;;;27.00;48.40;;;;;;5123459;27;45268;-66
2023/09/21 11:41:40;;;;;;;3.58;1.10;;;27.00;48.40;;;;;;5123446;27;45188;-67
2023/09/21 11:44:09;;;;;;;1.52;1.20;;;27.10;48.30;;;;;;5123823;27;45558;-66
2023/09/21 11:46:36;;;;;;;2.70;1.45;;;27.20;48.30;;;;;;5117778;27;46202;-66
2023/09/21 11:49:03;;;;;;;2.65;1.10;;;27.20;48.30;;;;;;5109241;27;45264;-66
2023/09/21 11:51:30;;;;;;;1.45;1.10;;;27.20;48.30;;;;;;5109334;27;45214;-66
2023/09/21 11:53:58;;;;;;;1.80;1.10;;;27.20;48.30;;;;;;5109173;27;45449;-66
2023/09/21 11:56:24;;;;;;;1.20;1.10;;;27.20;48.20;;;;;;5108782;27;47537;-67
2023/09/21 11:58:53;;;;;;;2.22;1.20;;;27.20;48.30;;;;;;5108771;27;45316;-67
2023/09/21 12:01:22;;;;;;;2.35;1.23;;;27.20;48.60;;;;;;5105892;27;45268;-66
2023/09/21 12:03:52;;;;;;;3.65;1.05;;;27.20;48.40;;;;;;5109260;27;45568;-66
2023/09/21 12:06:18;;;;;;;1.52;1.17;;;27.20;48.40;;;;;;5108474;27;45235;-67
2023/09/21 12:08:45;;;;;;;3.33;1.10;;;27.30;48.50;;;;;;5108928;27;45241;-66
2023/09/21 12:11:12;;;;;;;3.05;1.10;;;27.30;48.30;;;;;;5109156;27;45317;-67
2023/09/21 12:13:39;;;;;;;1.10;1.02;;;27.40;48.90;;;;;;5108901;27;45221;-66
2023/09/21 12:16:06;;;;;;;2.67;1.30;;;27.50;48.10;;;;;;5108481;27;45484;-67
2023/09/21 12:18:34;;;;;;;2.22;1.80;;;27.60;47.80;;;;;;5108795;27;45237;-67
2023/09/21 12:21:03;;;;;;;4.18;1.15;;;27.80;47.60;;;;;;5108751;27;45421;-67
2023/09/21 12:23:30;;;;;;;5.25;1.40;;;27.90;47.30;;;;;;5108310;27;45245;-66
2023/09/21 12:25:57;;;;;;;1.70;1.00;;;28.00;47.10;;;;;;5108213;27;46473;-65
2023/09/21 12:28:23;;;;;;;1.35;0.80;;;28.10;46.80;;;;;;5108350;27;45171;-65
2023/09/21 12:30:51;;;;;;;1.13;1.02;;;28.30;46.60;;;;;;5107891;27;45215;-65
2023/09/21 12:33:19;;;;;;;1.50;1.10;;;28.40;46.60;;;;;;5108453;27;45411;-67
2023/09/21 12:35:47;;;;;;;2.78;0.90;;;28.30;46.70;;;;;;5107928;27;46655;-65
2023/09/21 12:38:15;;;;;;;2.30;0.93;;;28.40;46.60;;;;;;5108311;27;45258;-66
2023/09/21 12:40:42;;;;;;;1.45;1.02;;;28.40;46.80;;;;;;5108130;27;45294;-67
2023/09/21 12:43:09;;;;;;;3.00;1.15;;;28.40;46.80;;;;;;5108224;27;45320;-67
2023/09/21 12:45:37;;;;;;;1.75;0.93;;;28.30;46.90;;;;;;5107883;27;46376;-66
2023/09/21 12:48:07;;;;;;;1.63;1.05;;;28.30;47.10;;;;;;5108183;27;45271;-66
2023/09/21 12:50:34;;;;;;;1.10;1.00;;;28.30;47.30;;;;;;5108180;27;45309;-67
2023/09/21 12:53:05;;;;;;;1.67;1.00;;;28.20;47.30;;;;;;5108214;27;45643;-67
2023/09/21 12:55:32;;;;;;;3.35;1.02;;;28.20;47.40;;;;;;5104992;27;45564;-67